Time;durP1;ratioP1;P1;durP2;ratioP2;P2;SDS_P1;SDS_P2;PMS_P1;PMS_P2;Temp;Humidity;BMP_temperature;BMP_pressure;BME280_temperature;BME280_humidity;BME280_pressure;Samples;Min_cycle;Max_cycle;Signal;HPM_P1;HPM_P2
2024/02/15 00:01:41;;;;;;;113.28;35.42;;;;;;;;;;5018251;28;20468;-65
2024/02/15 00:04:07;;;;;;;125.55;34.15;;;;;;;;;;5019476;28;20093;-65
2024/02/15 00:06:34;;;;;;;124.15;35.40;;;;;;;;;;5021399;28;20658;-65
2024/02/15 00:09:01;;;;;;;127.43;33.67;;;;;;;;;;5020641;28;20056;-65
2024/02/15 00:11:27;;;;;;;117.38;34.15;;;;;;;;;;5021938;28;20045;-65
2024/02/15 00:13:53;;;;;;;105.82;32.28;;;;;;;;;;5026961;28;20085;-65
2024/02/15 00:16:19;;;;;;;111.55;32.13;;;;;;;;;;5020483;28;20061;-65
2024/02/15 00:18:45;;;;;;;105.10;30.25;;;;;;;;;;5019180;28;20154;-65
2024/02/15 00:21:12;;;;;;;111.50;30.90;;;;;;;;;;5021007;28;20045;-65
2024/02/15 00:23:39;;;;;;;123.60;31.67;;;;;;;;;;5021893;28;20499;-65
2024/02/15 00:26:06;;;;;;;111.43;29.70;;;;;;;;;;5024037;28;20097;-65
2024/02/15 00:28:34;;;;;;;98.53;29.33;;;;;;;;;;5019786;28;20054;-65
2024/02/15 00:31:00;;;;;;;103.47;29.88;;;;;;;;;;5020510;28;20052;-65
2024/02/15 00:33:26;;;;;;;95.90;28.17;;;;;;;;;;5020099;28;20116;-65
2024/02/15 00:35:52;;;;;;;93.32;27.55;;;;;;;;;;5022565;28;20128;-65
2024/02/15 00:38:19;;;;;;;83.85;25.60;;;;;;;;;;5021900;28;20397;-65
2024/02/15 00:40:45;;;;;;;89.40;27.20;;;;;;;;;;5020024;28;20065;-65
2024/02/15 00:43:11;;;;;;;87.55;26.45;;;;;;;;;;5019119;28;20436;-65
2024/02/15 00:45:38;;;;;;;93.68;27.70;;;;;;;;;;5021708;28;20381;-65
2024/02/15 00:48:06;;;;;;;85.80;25.38;;;;;;;;;;5018580;28;20037;-65
2024/02/15 00:50:32;;;;;;;90.43;22.33;;;;;;;;;;5031185;28;20140;-65
2024/02/15 00:52:58;;;;;;;85.57;27.08;;;;;;;;;;5028471;28;20107;-65
2024/02/15 00:55:24;;;;;;;84.40;23.45;;;;;;;;;;5024452;28;20082;-65
2024/02/15 00:57:51;;;;;;;67.57;20.30;;;;;;;;;;5020148;28;20041;-65
2024/02/15 01:00:17;;;;;;;80.10;22.20;;;;;;;;;;5018981;28;20053;-65
2024/02/15 01:02:43;;;;;;;85.78;21.58;;;;;;;;;;5017809;28;20056;-65
2024/02/15 01:05:09;;;;;;;85.68;21.30;;;;;;;;;;5020048;28;20583;-65
2024/02/15 01:07:36;;;;;;;73.43;21.15;;;;;;;;;;5020197;28;20053;-65
2024/02/15 01:10:03;;;;;;;72.90;19.05;;;;;;;;;;5022365;28;20144;-65
2024/02/15 01:12:29;;;;;;;69.00;20.73;;;;;;;;;;5021076;28;20041;-65
2024/02/15 01:14:56;;;;;;;57.97;19.13;;;;;;;;;;5014340;28;20087;-65
2024/02/15 01:17:23;;;;;;;64.30;19.00;;;;;;;;;;4994468;28;20125;-65
2024/02/15 01:19:49;;;;;;;65.78;18.77;;;;;;;;;;5010971;28;20158;-65
2024/02/15 01:22:15;;;;;;;66.07;17.90;;;;;;;;;;5012555;28;20056;-65
2024/02/15 01:24:41;;;;;;;59.15;17.33;;;;;;;;;;5021762;28;20033;-65
2024/02/15 01:27:08;;;;;;;57.80;16.58;;;;;;;;;;5016543;28;20057;-65
2024/02/15 01:29:35;;;;;;;65.93;16.88;;;;;;;;;;5019452;28;20094;-65
2024/02/15 01:32:02;;;;;;;59.85;17.13;;;;;;;;;;5014067;28;20049;-65
2024/02/15 01:34:28;;;;;;;60.88;18.17;;;;;;;;;;5016417;28;20099;-65
2024/02/15 01:36:55;;;;;;;66.63;17.83;;;;;;;;;;5019391;28;20420;-65
2024/02/15 01:39:21;;;;;;;57.17;16.80;;;;;;;;;;5024730;28;20045;-65
2024/02/15 01:41:48;;;;;;;55.33;17.98;;;;;;;;;;5021030;28;20374;-65
2024/02/15 01:44:14;;;;;;;71.32;18.60;;;;;;;;;;4998912;28;20037;-65
2024/02/15 01:46:41;;;;;;;61.78;18.45;;;;;;;;;;5023135;28;20489;-65
2024/02/15 01:49:07;;;;;;;48.17;17.83;;;;;;;;;;5011418;28;20132;-65
2024/02/15 01:51:35;;;;;;;57.17;18.27;;;;;;;;;;5019031;28;20124;-65
2024/02/15 01:54:02;;;;;;;53.50;17.85;;;;;;;;;;5020940;28;20128;-65
2024/02/15 01:56:28;;;;;;;68.13;19.45;;;;;;;;;;5020518;28;20139;-65
2024/02/15 01:58:55;;;;;;;67.25;19.60;;;;;;;;;;5018992;28;20468;-65
2024/02/15 02:01:21;;;;;;;59.45;18.00;;;;;;;;;;5018622;28;20172;-65
2024/02/15 02:03:47;;;;;;;51.10;17.90;;;;;;;;;;5025343;28;20120;-65
2024/02/15 02:06:14;;;;;;;49.28;17.77;;;;;;;;;;5018551;28;20064;-65
2024/02/15 02:08:40;;;;;;;56.50;18.60;;;;;;;;;;5019252;28;20053;-65
2024/02/15 02:11:07;;;;;;;61.15;17.90;;;;;;;;;;5018540;28;20093;-65
2024/02/15 02:13:33;;;;;;;61.80;19.45;;;;;;;;;;5018814;28;20045;-65
2024/02/15 02:15:59;;;;;;;52.05;19.60;;;;;;;;;;5016539;28;20496;-65
2024/02/15 02:18:26;;;;;;;62.30;17.77;;;;;;;;;;5016195;28;20060;-65
2024/02/15 02:20:53;;;;;;;55.13;17.02;;;;;;;;;;5017546;28;20053;-65
2024/02/15 02:23:22;;;;;;;47.90;18.15;;;;;;;;;;5018235;28;20481;-65
2024/02/15 02:25:49;;;;;;;54.45;18.27;;;;;;;;;;5016630;28;20061;-66
2024/02/15 02:28:16;;;;;;;49.65;15.98;;;;;;;;;;5020467;28;20145;-65
2024/02/15 02:30:45;;;;;;;72.80;17.65;;;;;;;;;;5019829;28;20416;-65
2024/02/15 02:33:21;;;;;;;52.60;17.08;;;;;;;;;;4998844;28;20049;-65
2024/02/15 02:39:00;;;;;;;57.63;19.45;;;;;;;;;;5015733;28;20466;-65
2024/02/15 02:41:28;;;;;;;53.88;17.60;;;;;;;;;;5024279;28;20061;-65
2024/02/15 02:43:55;;;;;;;59.63;17.85;;;;;;;;;;5025919;28;20040;-65
2024/02/15 02:46:22;;;;;;;63.30;17.75;;;;;;;;;;5022032;28;20056;-65
2024/02/15 02:48:48;;;;;;;60.25;17.80;;;;;;;;;;5015042;28;20046;-65
2024/02/15 02:51:14;;;;;;;75.88;19.15;;;;;;;;;;5022505;28;20041;-65
2024/02/15 02:53:40;;;;;;;64.97;20.35;;;;;;;;;;5019119;28;20188;-65
2024/02/15 02:56:09;;;;;;;67.65;18.60;;;;;;;;;;5018634;28;20045;-65
2024/02/15 02:58:35;;;;;;;74.35;21.58;;;;;;;;;;5022128;28;20533;-65
2024/02/15 03:01:01;;;;;;;73.90;21.52;;;;;;;;;;5021684;28;20089;-65
2024/02/15 03:03:27;;;;;;;78.90;23.17;;;;;;;;;;5016239;28;20050;-65
2024/02/15 03:05:54;;;;;;;78.82;23.05;;;;;;;;;;5015990;28;20042;-65
2024/02/15 03:08:20;;;;;;;91.25;26.58;;;;;;;;;;5022180;28;20050;-65
2024/02/15 03:10:46;;;;;;;84.35;26.52;;;;;;;;;;5018139;28;20091;-65
2024/02/15 03:13:13;;;;;;;90.30;27.17;;;;;;;;;;5020878;28;20041;-65
2024/02/15 03:15:41;;;;;;;99.13;29.52;;;;;;;;;;5012795;28;20045;-65
2024/02/15 03:18:08;;;;;;;93.85;28.08;;;;;;;;;;5019872;28;20046;-65
2024/02/15 03:20:35;;;;;;;91.20;28.15;;;;;;;;;;5016691;28;20124;-66
2024/02/15 03:23:02;;;;;;;100.25;28.58;;;;;;;;;;5022508;28;20085;-66
2024/02/15 03:25:29;;;;;;;91.90;26.33;;;;;;;;;;5021857;28;20080;-65
2024/02/15 03:27:56;;;;;;;77.97;24.45;;;;;;;;;;5026402;28;20060;-65
2024/02/15 03:30:24;;;;;;;73.38;23.25;;;;;;;;;;5025654;28;21449;-65
2024/02/15 03:32:50;;;;;;;83.00;23.15;;;;;;;;;;5025776;28;20044;-65
2024/02/15 03:35:17;;;;;;;75.68;22.67;;;;;;;;;;5026504;28;20401;-65
2024/02/15 03:37:44;;;;;;;72.30;21.40;;;;;;;;;;5022891;28;20485;-65
2024/02/15 03:40:10;;;;;;;60.10;20.92;;;;;;;;;;5024189;28;20056;-65
2024/02/15 03:42:36;;;;;;;59.47;18.85;;;;;;;;;;5024174;28;21553;-65
2024/02/15 03:45:06;;;;;;;57.75;18.10;;;;;;;;;;5018361;28;20042;-65
2024/02/15 03:47:33;;;;;;;64.40;17.77;;;;;;;;;;5036142;28;20081;-65
2024/02/15 03:49:59;;;;;;;68.22;17.75;;;;;;;;;;5021665;28;20084;-65
2024/02/15 03:52:26;;;;;;;63.50;18.50;;;;;;;;;;5019153;28;20049;-65
2024/02/15 03:54:52;;;;;;;55.05;18.13;;;;;;;;;;5020343;28;20056;-65
2024/02/15 03:57:20;;;;;;;58.83;19.30;;;;;;;;;;5026533;28;20068;-65
2024/02/15 03:59:52;;;;;;;60.85;18.48;;;;;;;;;;5022130;28;20045;-65
2024/02/15 04:02:19;;;;;;;59.70;18.38;;;;;;;;;;5025869;28;20045;-65
2024/02/15 04:04:47;;;;;;;64.00;17.77;;;;;;;;;;5022358;28;20076;-65
2024/02/15 04:07:16;;;;;;;56.97;17.90;;;;;;;;;;5019239;28;20050;-65
2024/02/15 04:09:42;;;;;;;55.80;17.50;;;;;;;;;;5017840;28;20121;-65
2024/02/15 04:12:08;;;;;;;50.00;17.05;;;;;;;;;;5020034;28;20070;-65
2024/02/15 04:14:35;;;;;;;59.95;18.42;;;;;;;;;;5019534;28;20124;-65
2024/02/15 04:17:01;;;;;;;65.50;18.60;;;;;;;;;;5023993;28;20100;-65
2024/02/15 04:19:28;;;;;;;61.30;19.70;;;;;;;;;;5021613;28;20400;-65
2024/02/15 04:21:56;;;;;;;61.03;19.48;;;;;;;;;;5021556;28;20040;-65
2024/02/15 04:24:22;;;;;;;54.10;17.88;;;;;;;;;;5016340;28;20513;-65
2024/02/15 04:26:49;;;;;;;58.85;19.80;;;;;;;;;;5017131;28;20052;-65
2024/02/15 04:29:15;;;;;;;66.55;20.83;;;;;;;;;;5018887;28;20061;-65
2024/02/15 04:31:42;;;;;;;70.90;20.52;;;;;;;;;;5017810;28;20037;-65
2024/02/15 04:34:09;;;;;;;70.57;23.10;;;;;;;;;;5021784;28;20046;-65
2024/02/15 04:36:36;;;;;;;76.05;24.05;;;;;;;;;;5020371;28;20131;-65
2024/02/15 04:39:02;;;;;;;59.22;23.40;;;;;;;;;;5023941;28;20102;-65
2024/02/15 04:41:29;;;;;;;62.20;24.20;;;;;;;;;;5022728;28;20053;-66
2024/02/15 04:43:55;;;;;;;73.43;26.35;;;;;;;;;;5020127;28;20131;-65
2024/02/15 04:46:21;;;;;;;77.05;27.75;;;;;;;;;;5020339;28;20045;-65
2024/02/15 04:48:50;;;;;;;72.85;27.63;;;;;;;;;;5018600;28;20140;-65
2024/02/15 04:51:16;;;;;;;66.13;26.20;;;;;;;;;;5022829;28;20118;-65
2024/02/15 04:53:43;;;;;;;75.85;26.13;;;;;;;;;;5021293;28;20033;-65
2024/02/15 04:56:16;;;;;;;70.28;23.80;;;;;;;;;;5015316;28;20052;-65
2024/02/15 04:58:45;;;;;;;70.05;24.65;;;;;;;;;;5019244;28;20052;-65
2024/02/15 05:01:13;;;;;;;69.35;24.90;;;;;;;;;;5021772;28;20064;-65
2024/02/15 05:03:39;;;;;;;66.45;26.40;;;;;;;;;;5025360;28;20053;-65
2024/02/15 05:06:08;;;;;;;65.32;24.80;;;;;;;;;;5018634;28;20114;-65
2024/02/15 05:08:38;;;;;;;55.28;24.85;;;;;;;;;;5018471;28;20463;-65
2024/02/15 05:11:05;;;;;;;60.70;24.15;;;;;;;;;;5016640;28;20049;-65
2024/02/15 05:13:31;;;;;;;62.60;24.95;;;;;;;;;;5017181;28;20041;-65
2024/02/15 05:15:57;;;;;;;60.80;26.45;;;;;;;;;;5019000;28;20076;-65
2024/02/15 05:18:23;;;;;;;67.28;26.27;;;;;;;;;;5022639;28;20033;-65
2024/02/15 05:20:50;;;;;;;61.67;26.48;;;;;;;;;;5023333;28;20057;-65
2024/02/15 05:23:18;;;;;;;60.17;24.98;;;;;;;;;;5017520;28;20049;-65
2024/02/15 05:25:44;;;;;;;68.72;27.55;;;;;;;;;;5019647;28;20072;-65
2024/02/15 05:28:10;;;;;;;72.95;28.35;;;;;;;;;;5020845;28;20128;-65
2024/02/15 05:30:39;;;;;;;69.32;25.90;;;;;;;;;;5038572;28;20370;-65
2024/02/15 05:33:10;;;;;;;58.83;25.92;;;;;;;;;;5020734;28;20076;-65
2024/02/15 05:35:39;;;;;;;62.15;25.25;;;;;;;;;;5039065;28;20064;-65
2024/02/15 05:38:06;;;;;;;51.40;24.35;;;;;;;;;;5021147;28;20045;-65
2024/02/15 05:40:32;;;;;;;58.72;25.25;;;;;;;;;;5021716;28;20409;-65
2024/02/15 05:43:01;;;;;;;54.70;23.92;;;;;;;;;;5041183;28;20121;-65
2024/02/15 05:45:29;;;;;;;58.72;23.63;;;;;;;;;;5035937;28;20620;-65
2024/02/15 05:47:55;;;;;;;48.58;23.17;;;;;;;;;;5020897;28;20047;-65
2024/02/15 05:50:23;;;;;;;61.40;24.58;;;;;;;;;;5020950;28;20102;-65
2024/02/15 05:52:51;;;;;;;58.60;24.83;;;;;;;;;;5019417;28;20105;-65
2024/02/15 05:55:18;;;;;;;60.50;24.13;;;;;;;;;;5036255;28;20803;-65
2024/02/15 05:57:45;;;;;;;63.05;26.98;;;;;;;;;;5019722;28;20480;-65
2024/02/15 06:00:11;;;;;;;61.80;25.15;;;;;;;;;;5039020;28;20418;-65
2024/02/15 06:02:38;;;;;;;60.53;24.20;;;;;;;;;;5039062;28;20481;-65
2024/02/15 06:05:04;;;;;;;63.63;24.55;;;;;;;;;;5020900;28;20118;-65
2024/02/15 06:07:32;;;;;;;67.93;26.13;;;;;;;;;;5039036;28;20052;-65
2024/02/15 06:10:02;;;;;;;67.53;24.75;;;;;;;;;;5038270;28;20057;-65
2024/02/15 06:12:29;;;;;;;71.97;26.80;;;;;;;;;;5037668;28;20080;-65
2024/02/15 06:14:55;;;;;;;69.22;27.38;;;;;;;;;;5039676;28;20493;-65
2024/02/15 06:17:22;;;;;;;71.25;26.80;;;;;;;;;;5038967;28;20473;-65
2024/02/15 06:19:48;;;;;;;66.72;27.88;;;;;;;;;;5038488;28;20041;-65
2024/02/15 06:22:14;;;;;;;68.03;28.40;;;;;;;;;;5038700;28;20061;-65
2024/02/15 06:24:41;;;;;;;83.85;28.48;;;;;;;;;;5019359;28;20477;-65
2024/02/15 06:27:08;;;;;;;91.05;29.92;;;;;;;;;;5028031;28;20463;-65
2024/02/15 06:40:33;;;;;;;90.35;30.65;;;;;;;;;;5017165;28;20076;-65
2024/02/15 06:42:59;;;;;;;100.03;32.75;;;;;;;;;;5014671;28;20061;-65
2024/02/15 06:45:26;;;;;;;92.82;32.08;;;;;;;;;;5019510;28;20041;-65
2024/02/15 06:47:52;;;;;;;103.15;33.28;;;;;;;;;;5018212;28;20041;-65
2024/02/15 06:50:18;;;;;;;119.25;35.50;;;;;;;;;;5019270;28;20045;-65
2024/02/15 06:52:46;;;;;;;106.80;34.13;;;;;;;;;;5011030;28;20417;-65
2024/02/15 06:55:14;;;;;;;120.28;38.80;;;;;;;;;;5015910;28;20052;-65
2024/02/15 06:57:40;;;;;;;112.78;37.50;;;;;;;;;;5019562;28;20045;-65
2024/02/15 07:00:07;;;;;;;119.20;38.10;;;;;;;;;;5015682;28;20521;-65
2024/02/15 07:02:34;;;;;;;118.72;37.15;;;;;;;;;;5019926;28;20045;-65
2024/02/15 07:05:00;;;;;;;127.95;37.35;;;;;;;;;;5020373;28;20049;-65
2024/02/15 07:07:27;;;;;;;129.50;39.90;;;;;;;;;;5022898;28;20413;-65
2024/02/15 07:09:54;;;;;;;125.70;38.00;;;;;;;;;;5027378;28;20053;-66
2024/02/15 07:12:21;;;;;;;120.15;37.70;;;;;;;;;;5026432;28;20041;-65
2024/02/15 07:14:47;;;;;;;127.05;39.42;;;;;;;;;;5028019;28;20034;-65
2024/02/15 07:17:13;;;;;;;108.93;37.63;;;;;;;;;;5027496;28;20128;-65
2024/02/15 07:19:49;;;;;;;109.90;39.15;;;;;;;;;;5030903;28;20080;-65
2024/02/15 07:22:16;;;;;;;110.70;38.63;;;;;;;;;;5024389;28;20058;-65
2024/02/15 07:24:42;;;;;;;120.85;39.05;;;;;;;;;;5025657;28;20144;-65
2024/02/15 07:27:09;;;;;;;106.15;38.50;;;;;;;;;;5023481;28;20075;-65
2024/02/15 07:29:37;;;;;;;110.85;40.38;;;;;;;;;;5026453;28;20397;-65
2024/02/15 07:32:06;;;;;;;101.30;38.95;;;;;;;;;;5019695;28;20108;-65
2024/02/15 07:34:33;;;;;;;99.00;38.38;;;;;;;;;;5019863;28;20473;-66
2024/02/15 07:36:59;;;;;;;103.35;38.00;;;;;;;;;;5025044;28;20096;-66
2024/02/15 07:39:27;;;;;;;98.00;37.67;;;;;;;;;;5023322;28;20148;-66
2024/02/15 07:41:55;;;;;;;95.05;38.40;;;;;;;;;;5019523;28;20596;-66
2024/02/15 07:44:21;;;;;;;96.50;38.22;;;;;;;;;;5026698;28;20118;-65
2024/02/15 07:46:48;;;;;;;104.43;38.90;;;;;;;;;;5017894;28;20047;-65
2024/02/15 07:49:14;;;;;;;94.47;36.85;;;;;;;;;;5019054;28;20064;-66
2024/02/15 07:51:41;;;;;;;87.35;34.83;;;;;;;;;;5026330;28;20049;-66
2024/02/15 07:54:07;;;;;;;92.05;34.92;;;;;;;;;;5028282;28;20045;-66
2024/02/15 07:56:35;;;;;;;88.35;36.00;;;;;;;;;;5027874;28;20485;-66
2024/02/15 07:59:01;;;;;;;89.35;36.42;;;;;;;;;;5029543;28;20060;-66
2024/02/15 08:01:27;;;;;;;91.32;36.47;;;;;;;;;;5029744;28;20037;-66
2024/02/15 08:03:54;;;;;;;89.95;36.35;;;;;;;;;;5031172;28;20442;-65
2024/02/15 08:06:20;;;;;;;82.25;36.30;;;;;;;;;;5026717;28;20045;-65
2024/02/15 08:08:47;;;;;;;88.78;36.47;;;;;;;;;;5032514;28;20091;-65
2024/02/15 08:11:15;;;;;;;94.05;38.75;;;;;;;;;;5030280;28;20037;-65
2024/02/15 08:13:44;;;;;;;111.70;39.67;;;;;;;;;;5022353;28;20435;-65
2024/02/15 08:16:12;;;;;;;110.40;39.85;;;;;;;;;;5021376;28;20041;-65
2024/02/15 08:18:39;;;;;;;99.82;38.33;;;;;;;;;;5021308;28;20439;-65
2024/02/15 08:21:05;;;;;;;98.32;37.92;;;;;;;;;;5021992;28;20445;-65
2024/02/15 08:23:32;;;;;;;92.63;37.17;;;;;;;;;;5024356;28;20049;-65
2024/02/15 08:25:58;;;;;;;93.28;36.95;;;;;;;;;;5023901;28;20049;-66
2024/02/15 08:28:24;;;;;;;92.80;36.45;;;;;;;;;;5024941;28;20049;-65
2024/02/15 08:30:52;;;;;;;91.68;36.80;;;;;;;;;;5028954;28;20430;-65
2024/02/15 08:33:19;;;;;;;94.53;37.17;;;;;;;;;;5026663;28;20366;-69
2024/02/15 08:35:45;;;;;;;91.65;34.85;;;;;;;;;;5022760;28;20076;-65
2024/02/15 08:38:11;;;;;;;90.72;36.95;;;;;;;;;;5026260;28;20096;-72
2024/02/15 08:40:38;;;;;;;94.30;34.55;;;;;;;;;;5023850;28;20105;-65
2024/02/15 08:43:04;;;;;;;99.50;37.50;;;;;;;;;;5019527;28;20057;-65
2024/02/15 08:45:30;;;;;;;101.63;36.15;;;;;;;;;;5024922;28;20034;-64
2024/02/15 08:47:56;;;;;;;90.03;34.72;;;;;;;;;;5022586;28;20128;-65
2024/02/15 08:50:23;;;;;;;95.43;36.20;;;;;;;;;;5025105;28;20121;-65
2024/02/15 08:52:50;;;;;;;83.30;33.50;;;;;;;;;;5028209;28;20044;-64
2024/02/15 08:55:17;;;;;;;87.43;32.40;;;;;;;;;;5025531;28;20100;-64
2024/02/15 08:57:44;;;;;;;88.40;33.15;;;;;;;;;;5026269;28;20033;-64
2024/02/15 09:00:15;;;;;;;86.30;34.50;;;;;;;;;;5008374;28;20060;-64
2024/02/15 09:02:42;;;;;;;86.57;33.17;;;;;;;;;;5020939;28;20481;-64
2024/02/15 09:05:10;;;;;;;83.97;31.98;;;;;;;;;;5022096;28;20041;-64
2024/02/15 09:07:37;;;;;;;78.43;31.63;;;;;;;;;;5025079;28;20571;-64
2024/02/15 09:10:04;;;;;;;69.93;30.55;;;;;;;;;;5027137;28;20037;-64
2024/02/15 09:12:33;;;;;;;71.70;28.98;;;;;;;;;;5026596;28;20045;-64
2024/02/15 09:14:59;;;;;;;64.55;28.83;;;;;;;;;;5027226;28;20458;-64
2024/02/15 09:17:26;;;;;;;65.47;27.60;;;;;;;;;;5026943;28;20115;-64
2024/02/15 09:19:53;;;;;;;70.20;28.25;;;;;;;;;;5030934;28;20080;-64
2024/02/15 09:22:19;;;;;;;64.32;27.77;;;;;;;;;;5026549;28;20041;-64
2024/02/15 09:24:45;;;;;;;68.75;29.88;;;;;;;;;;5021510;28;20042;-65
2024/02/15 09:27:12;;;;;;;63.33;27.35;;;;;;;;;;5024194;28;20434;-64
2024/02/15 09:29:40;;;;;;;52.45;25.38;;;;;;;;;;5018821;28;20093;-65
2024/02/15 09:32:06;;;;;;;54.10;26.38;;;;;;;;;;5026465;28;20038;-65
2024/02/15 09:34:32;;;;;;;56.08;24.40;;;;;;;;;;5027893;28;20045;-64
2024/02/15 09:36:59;;;;;;;47.70;24.83;;;;;;;;;;5027607;28;20085;-65
2024/02/15 09:39:25;;;;;;;47.42;23.23;;;;;;;;;;5024229;28;20163;-65
2024/02/15 09:41:58;;;;;;;47.67;23.33;;;;;;;;;;5026528;28;20054;-65
2024/02/15 09:44:27;;;;;;;37.20;19.83;;;;;;;;;;5023622;28;20054;-65
2024/02/15 09:47:00;;;;;;;42.53;20.05;;;;;;;;;;5026522;28;20049;-64
2024/02/15 09:49:27;;;;;;;36.28;19.02;;;;;;;;;;5026253;28;20501;-64
2024/02/15 09:51:53;;;;;;;29.85;16.75;;;;;;;;;;5024636;28;20061;-64
2024/02/15 09:54:22;;;;;;;29.20;16.50;;;;;;;;;;5022701;28;20117;-65
2024/02/15 09:56:51;;;;;;;38.85;17.60;;;;;;;;;;5026575;28;20417;-64
2024/02/15 09:59:18;;;;;;;36.13;17.73;;;;;;;;;;5023261;28;20041;-65
2024/02/15 10:01:47;;;;;;;35.60;17.75;;;;;;;;;;5024241;28;20674;-64
2024/02/15 10:04:15;;;;;;;32.92;16.75;;;;;;;;;;5018646;28;20078;-65
2024/02/15 10:06:43;;;;;;;36.08;16.63;;;;;;;;;;5015708;28;20057;-65
2024/02/15 10:09:29;;;;;;;29.27;15.82;;;;;;;;;;5023410;28;20111;-64
2024/02/15 10:11:57;;;;;;;30.13;15.88;;;;;;;;;;5025785;28;20160;-64
2024/02/15 10:14:24;;;;;;;29.58;15.88;;;;;;;;;;5025152;28;20087;-64
2024/02/15 10:16:50;;;;;;;31.67;18.20;;;;;;;;;;5022445;28;21490;-64
2024/02/15 10:19:17;;;;;;;29.45;16.88;;;;;;;;;;5025300;28;20148;-65
2024/02/15 10:21:43;;;;;;;28.02;15.98;;;;;;;;;;5026935;28;20394;-65
2024/02/15 10:24:09;;;;;;;29.65;16.35;;;;;;;;;;5023069;28;20092;-65
2024/02/15 10:26:36;;;;;;;25.55;15.52;;;;;;;;;;5016898;28;20115;-64
2024/02/15 10:29:09;;;;;;;24.92;15.93;;;;;;;;;;5024803;28;20172;-65
2024/02/15 10:31:36;;;;;;;19.77;13.10;;;;;;;;;;5026511;28;20046;-65
2024/02/15 10:34:05;;;;;;;22.90;13.07;;;;;;;;;;5021544;28;20395;-65
2024/02/15 10:36:33;;;;;;;18.73;13.25;;;;;;;;;;5020132;28;20424;-65
2024/02/15 10:39:17;;;;;;;17.95;12.52;;;;;;;;;;5023630;28;20128;-65
2024/02/15 10:41:48;;;;;;;17.15;11.77;;;;;;;;;;5013569;28;20054;-64
2024/02/15 10:44:16;;;;;;;18.73;12.80;;;;;;;;;;5021561;28;20037;-64
2024/02/15 10:46:42;;;;;;;15.18;11.25;;;;;;;;;;5029300;28;20049;-64
2024/02/15 10:49:09;;;;;;;14.88;10.65;;;;;;;;;;5021270;28;20043;-64
2024/02/15 10:51:36;;;;;;;16.80;10.80;;;;;;;;;;5024990;28;20053;-65
2024/02/15 10:54:03;;;;;;;14.98;9.90;;;;;;;;;;5026709;28;20103;-64
2024/02/15 10:56:35;;;;;;;17.10;10.85;;;;;;;;;;5027280;28;20033;-65
2024/02/15 10:59:13;;;;;;;17.73;10.93;;;;;;;;;;5026653;28;20057;-64
2024/02/15 11:01:41;;;;;;;17.55;10.43;;;;;;;;;;5024757;28;20053;-64
2024/02/15 11:04:08;;;;;;;18.67;11.30;;;;;;;;;;5026595;28;20127;-64
2024/02/15 11:06:36;;;;;;;18.90;11.57;;;;;;;;;;5026404;28;20061;-65
2024/02/15 11:09:03;;;;;;;19.52;11.13;;;;;;;;;;5023144;28;20041;-64
2024/02/15 11:11:30;;;;;;;18.27;12.15;;;;;;;;;;5018708;28;20127;-64
2024/02/15 11:14:15;;;;;;;20.08;12.90;;;;;;;;;;5021656;28;20045;-64
2024/02/15 11:16:45;;;;;;;25.38;13.73;;;;;;;;;;5034784;28;20387;-64
2024/02/15 11:19:31;;;;;;;26.30;16.35;;;;;;;;;;5025097;28;20045;-78
2024/02/15 11:21:59;;;;;;;27.10;16.80;;;;;;;;;;5024415;28;20453;-65
2024/02/15 11:24:25;;;;;;;25.38;16.92;;;;;;;;;;5023675;28;20038;-64
2024/02/15 11:26:51;;;;;;;24.65;15.73;;;;;;;;;;5025154;28;20080;-65
2024/02/15 11:29:41;;;;;;;27.30;16.73;;;;;;;;;;5021103;28;20068;-64
2024/02/15 11:32:08;;;;;;;31.33;16.25;;;;;;;;;;5019110;28;20052;-65
2024/02/15 11:34:51;;;;;;;27.02;15.10;;;;;;;;;;5023417;28;20137;-64
2024/02/15 11:37:37;;;;;;;30.58;15.52;;;;;;;;;;5021114;28;20038;-65
2024/02/15 11:40:03;;;;;;;39.45;15.95;;;;;;;;;;5025275;28;20048;-64
2024/02/15 11:42:29;;;;;;;42.28;18.55;;;;;;;;;;5022566;28;20048;-65
2024/02/15 11:45:04;;;;;;;52.78;20.33;;;;;;;;;;5026591;28;20065;-65
2024/02/15 11:47:33;;;;;;;60.55;21.73;;;;;;;;;;5024439;28;20053;-65
2024/02/15 11:50:00;;;;;;;67.40;22.40;;;;;;;;;;5027026;28;20075;-65
2024/02/15 11:52:27;;;;;;;69.68;24.02;;;;;;;;;;5023862;28;20041;-65
2024/02/15 11:54:53;;;;;;;68.57;24.73;;;;;;;;;;5022963;28;20046;-65
2024/02/15 11:57:36;;;;;;;83.07;26.52;;;;;;;;;;5018648;28;20559;-65
2024/02/15 12:18:38;;;;;;;85.68;26.48;;;;;;;;;;5024283;28;20054;-65
2024/02/15 12:19:29;;;;;;;97.68;30.77;;;;;;;;;;5023798;28;20059;-65
2024/02/15 12:21:57;;;;;;;89.10;30.48;;;;;;;;;;5024614;28;20457;-65
2024/02/15 12:24:26;;;;;;;99.50;30.75;;;;;;;;;;5026821;28;20044;-64
2024/02/15 12:27:01;;;;;;;99.22;32.40;;;;;;;;;;5029522;28;20049;-65
2024/02/15 12:29:28;;;;;;;95.03;31.23;;;;;;;;;;5029468;28;20091;-64
2024/02/15 12:31:55;;;;;;;80.25;30.73;;;;;;;;;;5035183;28;20094;-65
2024/02/15 12:34:21;;;;;;;84.13;31.02;;;;;;;;;;5033347;28;20043;-65
2024/02/15 12:36:49;;;;;;;87.10;30.88;;;;;;;;;;5033019;28;20484;-65
2024/02/15 12:39:16;;;;;;;88.82;31.83;;;;;;;;;;5034911;28;20085;-65
2024/02/15 12:41:49;;;;;;;80.40;32.03;;;;;;;;;;5034480;28;20136;-65
2024/02/15 12:44:18;;;;;;;79.90;30.80;;;;;;;;;;5034212;28;20158;-65
2024/02/15 12:46:45;;;;;;;77.32;30.45;;;;;;;;;;5030100;28;20400;-65
2024/02/15 12:49:15;;;;;;;73.22;31.20;;;;;;;;;;5026885;28;20346;-65
2024/02/15 12:51:51;;;;;;;79.13;31.60;;;;;;;;;;5031691;28;20095;-65
2024/02/15 12:54:21;;;;;;;68.28;31.15;;;;;;;;;;5025785;28;20068;-65
2024/02/15 12:56:49;;;;;;;78.28;32.15;;;;;;;;;;5033803;28;20053;-65
2024/02/15 12:59:16;;;;;;;74.78;32.90;;;;;;;;;;5032587;28;20103;-64
2024/02/15 13:01:42;;;;;;;83.85;33.60;;;;;;;;;;5026862;28;20489;-65
2024/02/15 13:04:08;;;;;;;84.72;34.42;;;;;;;;;;5026483;28;20065;-65
2024/02/15 13:06:37;;;;;;;91.95;34.63;;;;;;;;;;5025961;28;20045;-65
2024/02/15 13:09:06;;;;;;;94.97;34.53;;;;;;;;;;5026340;28;20056;-65
2024/02/15 13:11:33;;;;;;;94.68;34.08;;;;;;;;;;5026325;28;20048;-65
2024/02/15 13:13:59;;;;;;;98.25;35.05;;;;;;;;;;5024881;28;20052;-65
2024/02/15 13:16:28;;;;;;;90.65;33.53;;;;;;;;;;5019923;28;20063;-65
2024/02/15 13:18:54;;;;;;;84.45;34.58;;;;;;;;;;5020232;28;20417;-65
2024/02/15 13:21:23;;;;;;;89.07;32.20;;;;;;;;;;5026146;28;20044;-65
2024/02/15 13:23:50;;;;;;;88.97;33.97;;;;;;;;;;5019496;28;20107;-65
2024/02/15 13:26:19;;;;;;;83.72;34.38;;;;;;;;;;5021571;28;20068;-65
2024/02/15 13:28:46;;;;;;;81.47;33.00;;;;;;;;;;5024817;28;20055;-65
2024/02/15 13:31:13;;;;;;;83.50;33.08;;;;;;;;;;5028457;28;20053;-66
2024/02/15 13:33:39;;;;;;;92.25;33.17;;;;;;;;;;5027601;28;20388;-65
2024/02/15 13:36:10;;;;;;;83.03;32.25;;;;;;;;;;5025993;28;20171;-65
2024/02/15 13:38:37;;;;;;;89.35;33.67;;;;;;;;;;5027895;28;20499;-65
2024/02/15 13:41:04;;;;;;;89.13;33.33;;;;;;;;;;5033295;28;20049;-65
2024/02/15 13:43:32;;;;;;;82.68;34.65;;;;;;;;;;5026551;28;20080;-65
2024/02/15 13:45:59;;;;;;;82.13;35.85;;;;;;;;;;5027422;28;20150;-65
2024/02/15 13:48:29;;;;;;;85.85;35.90;;;;;;;;;;5029032;28;20085;-65
2024/02/15 13:50:56;;;;;;;80.55;34.08;;;;;;;;;;5027275;28;20076;-65
2024/02/15 13:53:22;;;;;;;83.22;34.80;;;;;;;;;;5026334;28;20041;-65
2024/02/15 13:55:51;;;;;;;77.28;34.72;;;;;;;;;;5024992;28;20093;-65
2024/02/15 13:58:18;;;;;;;85.72;33.85;;;;;;;;;;5024921;28;20049;-65
2024/02/15 14:00:44;;;;;;;65.63;32.60;;;;;;;;;;5024306;28;20508;-65
2024/02/15 14:03:11;;;;;;;71.47;32.80;;;;;;;;;;5025499;28;20508;-65
2024/02/15 14:05:39;;;;;;;77.93;35.63;;;;;;;;;;5024287;28;20136;-65
2024/02/15 14:08:08;;;;;;;72.03;34.38;;;;;;;;;;5024306;28;20451;-65
2024/02/15 14:10:36;;;;;;;79.35;33.85;;;;;;;;;;5022584;28;20056;-65
2024/02/15 14:13:03;;;;;;;68.88;32.28;;;;;;;;;;5024320;28;20048;-65
2024/02/15 14:15:30;;;;;;;73.22;32.72;;;;;;;;;;5022618;28;20093;-65
2024/02/15 14:17:57;;;;;;;69.97;32.50;;;;;;;;;;5023823;28;20048;-65
2024/02/15 14:20:23;;;;;;;77.43;32.92;;;;;;;;;;5022093;28;20487;-65
2024/02/15 14:22:55;;;;;;;65.60;32.53;;;;;;;;;;5033404;28;20056;-65
2024/02/15 14:25:21;;;;;;;67.03;31.92;;;;;;;;;;5032046;28;20053;-65
2024/02/15 14:27:48;;;;;;;64.32;31.30;;;;;;;;;;5034118;28;20045;-65
2024/02/15 14:33:00;;;;;;;64.78;30.73;;;;;;;;;;5021566;28;20264;-66
2024/02/15 14:35:29;;;;;;;59.22;30.05;;;;;;;;;;5026920;28;20037;-66
2024/02/15 14:37:58;;;;;;;63.67;31.67;;;;;;;;;;5018006;28;20075;-66
2024/02/15 14:40:24;;;;;;;67.35;29.92;;;;;;;;;;5018880;28;20045;-65
2024/02/15 14:42:50;;;;;;;61.13;28.27;;;;;;;;;;5026325;28;20143;-65
2024/02/15 14:45:16;;;;;;;53.78;27.80;;;;;;;;;;5023209;28;20124;-65
2024/02/15 14:47:43;;;;;;;56.08;29.00;;;;;;;;;;5019505;28;20389;-65
2024/02/15 14:50:09;;;;;;;59.33;28.77;;;;;;;;;;5018137;28;20060;-65
2024/02/15 14:52:36;;;;;;;54.60;26.58;;;;;;;;;;5022565;28;20065;-66